Time;durP1;ratioP1;P1;durP2;ratioP2;P2;SDS_P1;SDS_P2;PMS_P1;PMS_P2;Temp;Humidity;BMP_temperature;BMP_pressure;BME280_temperature;BME280_humidity;BME280_pressure;Samples;Min_cycle;Max_cycle;Signal;HPM_P1;HPM_P2
2023/07/22 00:03:44;;;;;;;5.35;2.97;;;;;;;;;;21006824;28;20041;-65
2023/07/22 00:13:45;;;;;;;5.93;3.50;;;;;;;;;;21007407;28;20125;-65
2023/07/22 00:23:46;;;;;;;7.07;3.33;;;;;;;;;;21006843;28;20554;-65
2023/07/22 00:33:48;;;;;;;4.00;2.60;;;;;;;;;;21005962;28;20106;-65
2023/07/22 00:43:49;;;;;;;4.18;2.67;;;;;;;;;;21003725;28;20083;-65
2023/07/22 00:53:50;;;;;;;3.85;2.90;;;;;;;;;;21004350;28;20075;-66
2023/07/22 01:03:51;;;;;;;4.85;2.90;;;;;;;;;;21003384;28;20053;-64
2023/07/22 01:13:57;;;;;;;6.97;2.70;;;;;;;;;;21002712;28;20485;-65
2023/07/22 01:23:58;;;;;;;;;;;;;;;;;;21002073;28;20040;-65
2023/07/22 01:33:59;;;;;;;5.30;3.13;;;;;;;;;;21000816;28;19924;-66
2023/07/22 01:44:01;;;;;;;3.88;2.53;;;;;;;;;;20998098;28;20051;-66
2023/07/22 01:54:02;;;;;;;4.07;2.67;;;;;;;;;;20998569;28;20048;-65
2023/07/22 02:04:03;;;;;;;10.30;3.28;;;;;;;;;;20997296;28;20050;-65
2023/07/22 02:14:06;;;;;;;6.00;2.85;;;;;;;;;;20997313;28;20047;-66
2023/07/22 02:24:08;;;;;;;5.13;2.70;;;;;;;;;;20997068;28;20115;-66
2023/07/22 02:34:09;;;;;;;5.35;2.97;;;;;;;;;;20995369;28;20040;-65
2023/07/22 02:44:10;;;;;;;4.60;2.83;;;;;;;;;;20994693;28;20053;-65
2023/07/22 02:54:11;;;;;;;4.15;2.63;;;;;;;;;;20996014;28;20467;-65
2023/07/22 03:04:14;;;;;;;5.75;2.60;;;;;;;;;;20995274;28;20466;-65
2023/07/22 03:14:15;;;;;;;4.18;2.75;;;;;;;;;;21008022;28;20048;-65
2023/07/22 03:24:16;;;;;;;3.40;2.65;;;;;;;;;;21010926;28;20123;-66
2023/07/22 03:34:17;;;;;;;3.83;2.50;;;;;;;;;;21010504;28;20044;-65
2023/07/22 03:44:18;;;;;;;4.72;2.35;;;;;;;;;;21008418;28;20063;-65
2023/07/22 03:54:19;;;;;;;5.65;3.03;;;;;;;;;;21008900;28;20468;-65
2023/07/22 04:04:20;;;;;;;5.78;2.80;;;;;;;;;;21006778;28;20041;-65
2023/07/22 04:14:21;;;;;;;4.30;2.83;;;;;;;;;;21006286;28;20048;-65
2023/07/22 04:24:22;;;;;;;5.85;2.67;;;;;;;;;;21004458;28;20051;-66
2023/07/22 04:34:25;;;;;;;5.32;2.35;;;;;;;;;;21004784;28;20049;-65
2023/07/22 04:44:26;;;;;;;3.85;2.53;;;;;;;;;;21004268;28;20386;-66
2023/07/22 04:54:28;;;;;;;4.28;2.92;;;;;;;;;;21004466;28;20498;-66
2023/07/22 05:04:29;;;;;;;5.70;2.75;;;;;;;;;;21003500;28;20077;-66
2023/07/22 05:14:30;;;;;;;4.15;2.03;;;;;;;;;;21002777;28;20055;-65
2023/07/22 05:24:31;;;;;;;3.97;2.58;;;;;;;;;;21004300;28;20032;-65
2023/07/22 05:34:32;;;;;;;7.57;2.67;;;;;;;;;;20998341;28;20055;-65
2023/07/22 05:44:33;;;;;;;4.97;2.90;;;;;;;;;;20999199;28;20497;-64
2023/07/22 05:54:34;;;;;;;5.65;2.80;;;;;;;;;;20999275;28;20501;-66
2023/07/22 06:04:36;;;;;;;5.88;2.60;;;;;;;;;;20998033;28;20048;-65
2023/07/22 06:14:37;;;;;;;5.82;3.00;;;;;;;;;;20997875;28;20053;-65
2023/07/22 06:24:38;;;;;;;5.18;2.72;;;;;;;;;;20997295;28;20509;-65
2023/07/22 06:34:39;;;;;;;7.85;3.17;;;;;;;;;;20995573;28;20044;-64
2023/07/22 06:44:40;;;;;;;7.40;2.80;;;;;;;;;;20995704;28;20062;-64
2023/07/22 06:54:41;;;;;;;4.70;2.85;;;;;;;;;;20995782;28;20040;-66
2023/07/22 07:04:42;;;;;;;7.03;2.95;;;;;;;;;;20995322;28;20044;-66
2023/07/22 07:14:43;;;;;;;8.73;2.65;;;;;;;;;;20994734;28;20041;-66
2023/07/22 07:24:44;;;;;;;3.83;2.65;;;;;;;;;;20994947;28;20045;-66
2023/07/22 07:34:45;;;;;;;6.32;2.80;;;;;;;;;;20993546;28;20055;-66
2023/07/22 07:44:47;;;;;;;5.22;2.95;;;;;;;;;;20992570;28;20092;-66
2023/07/22 07:54:48;;;;;;;5.40;2.90;;;;;;;;;;20994991;28;20055;-66
2023/07/22 08:04:49;;;;;;;5.82;3.00;;;;;;;;;;21007821;28;20040;-66
2023/07/22 08:14:50;;;;;;;6.53;3.08;;;;;;;;;;21007146;28;20048;-65
2023/07/22 08:24:52;;;;;;;8.43;3.38;;;;;;;;;;21005895;28;20095;-66
2023/07/22 08:34:53;;;;;;;7.30;3.10;;;;;;;;;;21005690;28;20106;-66
2023/07/22 08:44:57;;;;;;;6.57;3.63;;;;;;;;;;21004005;28;20057;-66
2023/07/22 08:54:59;;;;;;;7.07;3.10;;;;;;;;;;21004508;28;20040;-65
2023/07/22 09:05:00;;;;;;;8.32;3.50;;;;;;;;;;21002257;28;20055;-66
2023/07/22 09:15:01;;;;;;;6.25;3.30;;;;;;;;;;21003426;28;20123;-66
2023/07/22 09:25:14;;;;;;;7.47;3.60;;;;;;;;;;21001315;28;20040;-66
2023/07/22 09:35:15;;;;;;;9.43;3.90;;;;;;;;;;21001213;28;20512;-66
2023/07/22 09:45:22;;;;;;;10.60;3.78;;;;;;;;;;20998368;28;20048;-66
2023/07/22 09:55:24;;;;;;;5.57;2.60;;;;;;;;;;20998491;28;20390;-60
2023/07/22 10:05:26;;;;;;;7.28;4.10;;;;;;;;;;20997005;28;20044;-64
2023/07/22 10:15:28;;;;;;;8.30;4.45;;;;;;;;;;20996428;28;20040;-66
2023/07/22 10:25:30;;;;;;;9.10;4.32;;;;;;;;;;20989990;28;20067;-67
2023/07/22 10:35:31;;;;;;;10.00;5.00;;;;;;;;;;20993490;28;20105;-66
2023/07/22 10:45:34;;;;;;;5.90;4.35;;;;;;;;;;20995065;28;20493;-67
2023/07/22 10:55:55;;;;;;;7.30;5.10;;;;;;;;;;20995806;28;20037;-66
2023/07/22 11:05:56;;;;;;;11.93;4.75;;;;;;;;;;20994601;28;20098;-67
2023/07/22 11:16:00;;;;;;;11.10;4.55;;;;;;;;;;20995712;28;20230;-67
2023/07/22 11:26:02;;;;;;;12.68;4.80;;;;;;;;;;20994822;28;20041;-66
2023/07/22 11:36:03;;;;;;;10.02;5.03;;;;;;;;;;21007980;28;20065;-67
2023/07/22 11:46:07;;;;;;;9.90;5.18;;;;;;;;;;21008531;28;20529;-67
2023/07/22 11:56:08;;;;;;;8.15;4.75;;;;;;;;;;21008982;28;20052;-66
2023/07/22 12:06:10;;;;;;;7.75;4.18;;;;;;;;;;21008549;28;20040;-67
2023/07/22 12:16:11;;;;;;;4.97;3.78;;;;;;;;;;21007760;28;20037;-66
2023/07/22 12:26:12;;;;;;;6.55;3.75;;;;;;;;;;21006956;28;20048;-66
2023/07/22 12:36:13;;;;;;;7.53;4.00;;;;;;;;;;21005020;28;20051;-66
2023/07/22 12:46:14;;;;;;;7.65;5.18;;;;;;;;;;21003284;28;20053;-66
2023/07/22 12:56:15;;;;;;;5.80;4.05;;;;;;;;;;21003637;28;20127;-66
2023/07/22 13:06:16;;;;;;;7.95;4.18;;;;;;;;;;21006351;28;20082;-66
2023/07/22 13:16:17;;;;;;;7.57;3.45;;;;;;;;;;21003318;28;20051;-66
2023/07/22 13:26:18;;;;;;;8.20;4.30;;;;;;;;;;21002382;28;20044;-65
2023/07/22 13:36:20;;;;;;;5.40;3.85;;;;;;;;;;21001771;28;20072;-66
2023/07/22 13:46:21;;;;;;;6.97;3.97;;;;;;;;;;21001492;28;20053;-66
2023/07/22 13:56:22;;;;;;;6.55;4.32;;;;;;;;;;20999165;28;20412;-66
2023/07/22 14:06:23;;;;;;;5.60;4.32;;;;;;;;;;20997646;28;20053;-66
2023/07/22 14:16:25;;;;;;;5.80;4.13;;;;;;;;;;20997128;28;20041;-66
2023/07/22 14:26:26;;;;;;;11.45;5.53;;;;;;;;;;20998198;28;20056;-66
2023/07/22 14:36:28;;;;;;;5.82;4.10;;;;;;;;;;20997557;28;20044;-66
2023/07/22 14:46:29;;;;;;;5.18;3.67;;;;;;;;;;20995706;28;20066;-66
2023/07/22 14:56:30;;;;;;;8.20;4.90;;;;;;;;;;20995509;28;20131;-66
2023/07/22 15:06:31;;;;;;;5.32;3.50;;;;;;;;;;21003368;28;20047;-68
2023/07/22 15:16:33;;;;;;;9.95;6.25;;;;;;;;;;21011379;28;20185;-68
2023/07/22 15:26:34;;;;;;;7.47;5.28;;;;;;;;;;21012068;28;20478;-67
2023/07/22 15:36:35;;;;;;;6.85;4.75;;;;;;;;;;21009563;28;20045;-68
2023/07/22 15:46:36;;;;;;;9.90;5.18;;;;;;;;;;21008189;28;20094;-67
2023/07/22 15:56:37;;;;;;;7.15;4.63;;;;;;;;;;21008748;28;20079;-67
2023/07/22 16:06:38;;;;;;;8.93;6.13;;;;;;;;;;21008785;28;20157;-67
2023/07/22 16:16:40;;;;;;;9.48;4.80;;;;;;;;;;21006758;28;20387;-68
2023/07/22 16:26:41;;;;;;;8.65;6.28;;;;;;;;;;21006795;28;20041;-66
2023/07/22 16:36:42;;;;;;;7.95;4.95;;;;;;;;;;21006524;28;20052;-68
2023/07/22 16:46:44;;;;;;;9.68;6.70;;;;;;;;;;21004101;28;20474;-67
2023/07/22 16:56:45;;;;;;;6.50;4.90;;;;;;;;;;21003525;28;20080;-68
2023/07/22 17:06:46;;;;;;;9.00;4.88;;;;;;;;;;21003275;28;20423;-67
2023/07/22 17:16:47;;;;;;;10.05;7.07;;;;;;;;;;21001377;28;20050;-67
2023/07/22 17:26:48;;;;;;;10.73;6.28;;;;;;;;;;21001647;28;20053;-67
2023/07/22 17:36:49;;;;;;;8.75;5.50;;;;;;;;;;20999587;28;20045;-69
2023/07/22 17:46:50;;;;;;;8.68;5.32;;;;;;;;;;20999443;28;20437;-66
2023/07/22 17:56:53;;;;;;;18.60;6.22;;;;;;;;;;20999772;28;20481;-65
2023/07/22 18:06:55;;;;;;;7.30;4.88;;;;;;;;;;20997940;28;20044;-65
2023/07/22 18:16:56;;;;;;;17.90;8.50;;;;;;;;;;20998306;28;20040;-65
2023/07/22 18:26:57;;;;;;;8.48;5.80;;;;;;;;;;20998033;28;20067;-65
2023/07/22 18:36:58;;;;;;;8.35;4.60;;;;;;;;;;20997307;28;20374;-65
2023/07/22 18:46:59;;;;;;;6.82;4.68;;;;;;;;;;20997863;28;20053;-65
2023/07/22 18:57:00;;;;;;;8.20;5.70;;;;;;;;;;20996770;28;20436;-65
2023/07/22 19:07:02;;;;;;;8.15;5.85;;;;;;;;;;20996219;28;20041;-65
2023/07/22 19:17:03;;;;;;;9.70;6.50;;;;;;;;;;20995651;28;20490;-66
2023/07/22 19:27:04;;;;;;;13.40;7.10;;;;;;;;;;20995266;28;20111;-65
2023/07/22 19:37:06;;;;;;;9.80;7.22;;;;;;;;;;20995003;28;20396;-66
2023/07/22 19:47:07;;;;;;;10.30;8.57;;;;;;;;;;20992666;28;20049;-66
2023/07/22 19:57:08;;;;;;;12.27;7.85;;;;;;;;;;21008625;28;20414;-65
2023/07/22 20:07:09;;;;;;;14.82;9.55;;;;;;;;;;21010999;28;20079;-65
2023/07/22 20:17:10;;;;;;;16.30;10.07;;;;;;;;;;21007781;28;20049;-66
2023/07/22 20:27:12;;;;;;;17.80;11.98;;;;;;;;;;21006917;28;20432;-64
2023/07/22 20:37:13;;;;;;;18.55;12.48;;;;;;;;;;21006622;28;20500;-65
2023/07/22 20:47:14;;;;;;;19.58;13.52;;;;;;;;;;21004070;28;20052;-65
2023/07/22 20:57:18;;;;;;;24.60;15.23;;;;;;;;;;21003411;28;20059;-65
2023/07/22 21:07:19;;;;;;;27.80;17.92;;;;;;;;;;21003906;28;20477;-65
2023/07/22 21:17:22;;;;;;;35.20;20.55;;;;;;;;;;21003567;28;20154;-65
2023/07/22 21:27:23;;;;;;;36.67;23.73;;;;;;;;;;21002773;28;20538;-66
2023/07/22 21:37:24;;;;;;;42.00;26.77;;;;;;;;;;21001693;28;20047;-65
2023/07/22 21:47:25;;;;;;;45.20;27.65;;;;;;;;;;20999883;28;20124;-65
2023/07/22 21:57:26;;;;;;;36.05;24.17;;;;;;;;;;21000402;28;20037;-64
2023/07/22 22:07:27;;;;;;;36.90;23.23;;;;;;;;;;20999394;28;20049;-65
2023/07/22 22:17:28;;;;;;;34.08;21.25;;;;;;;;;;20997935;28;20047;-65
2023/07/22 22:27:29;;;;;;;36.20;22.58;;;;;;;;;;20998266;28;20040;-64
2023/07/22 22:37:31;;;;;;;36.00;21.98;;;;;;;;;;20997367;28;20062;-64
2023/07/22 22:47:32;;;;;;;35.63;21.75;;;;;;;;;;20995635;28;20052;-64
2023/07/22 22:57:33;;;;;;;29.10;18.55;;;;;;;;;;20995845;28;20045;-67
2023/07/22 23:07:34;;;;;;;33.25;19.98;;;;;;;;;;20996429;28;20371;-65
2023/07/22 23:17:36;;;;;;;33.80;18.77;;;;;;;;;;20995003;28;20055;-66
2023/07/22 23:27:38;;;;;;;31.98;19.85;;;;;;;;;;21002690;28;20040;-66
2023/07/22 23:37:40;;;;;;;30.40;18.67;;;;;;;;;;21011644;28;20045;-64
2023/07/22 23:47:43;;;;;;;31.80;18.38;;;;;;;;;;21008972;28;20056;-65
2023/07/22 23:57:44;;;;;;;27.05;15.82;;;;;;;;;;21009846;28;20045;-64
